CheckWX is a tool to help pilots better visualize weather data.  It is not intended as a substitute for an official pre-flight weather briefing.

03:14:02 UTC

KFLY METAR
Meadow Lake Airport
Colorado Springs, Colorado, USA
Current

19 mins ago

KFLY 240255Z AUTO 35004KT 10SM SCT011 01/00 A3006 RMK AO2 T00051005
Observed
Mar-24 @ 02:55 UTC
Wind
  • 350° at 4 KTS
Visibility
10 SM
Flight Rules
VFR
Cloud Levels
  • Scattered at 1,100' AGL
Temperature
C / 34°F
Dewpoint
-1°C / 30°F
Humidity
87%
Altimeter
30.06" Hg
Pressure
1017.92 hPa
Previous

39 mins ago

KFLY 240235Z AUTO 02011G16KT 330V030 10SM BKN013 01/00 A3005 RMK AO2 T00091001
Observed
Mar-24 @ 02:35 UTC
Wind
  • 020° at 11 KTS
  • Gusting to 16 KTS
Visibility
10 SM
Flight Rules
MVFR
Cloud Levels
  • Broken at 1,300' AGL
Temperature
C / 34°F
Dewpoint
-0°C / 32°F
Humidity
93%
Altimeter
30.05" Hg
Pressure
1017.62 hPa
Previous

59 mins ago

KFLY 240215Z AUTO 35008G14KT 300V030 10SM OVC015 02/00 A3004 RMK AO2 T00150000
Observed
Mar-24 @ 02:15 UTC
Wind
  • 350° at 8 KTS
  • Gusting to 14 KTS
Visibility
10 SM
Flight Rules
MVFR
Cloud Levels
  • Overcast at 1,500' AGL
Temperature
C / 36°F
Dewpoint
C / 32°F
Humidity
87%
Altimeter
30.04" Hg
Pressure
1017.32 hPa